createdAt,value
2023-04-08T00:00:20.155Z,487.2308
2023-04-08T00:01:21.516Z,491.4615
2023-04-08T00:02:23.025Z,495.7692
2023-04-08T00:03:25.364Z,495.8462
2023-04-08T00:04:25.874Z,494.3846
2023-04-08T00:05:27.272Z,495.1538
2023-04-08T00:06:28.695Z,495.7692
2023-04-08T00:07:30.755Z,496.6154
2023-04-08T00:08:31.926Z,496.6154
2023-04-08T00:09:33.385Z,498.1538
2023-04-08T00:10:34.467Z,500.1538
2023-04-08T00:11:35.812Z,501.5385
2023-04-08T00:12:37.311Z,499.0000
2023-04-08T00:13:38.721Z,495.1538
2023-04-08T00:14:40.034Z,493.3077
2023-04-08T00:15:41.572Z,492.2308
2023-04-08T00:16:43.025Z,485.4615
2023-04-08T00:17:44.417Z,484.0000
2023-04-08T00:18:45.867Z,485.3077
2023-04-08T00:19:47.339Z,488.5385
2023-04-08T00:20:48.749Z,490.0000
2023-04-08T00:21:50.236Z,491.8462
2023-04-08T00:22:51.610Z,494.6154
2023-04-08T00:23:53.004Z,497.7692
2023-04-08T00:24:54.874Z,498.4615
2023-04-08T00:25:55.884Z,502.6154
2023-04-08T00:26:57.319Z,504.9231
2023-04-08T00:27:58.716Z,506.9231
2023-04-08T00:29:00.186Z,506.6154
2023-04-08T00:30:01.666Z,502.9231
2023-04-08T00:31:03.199Z,503.3077
2023-04-08T00:32:04.485Z,503.3077
2023-04-08T00:33:06.028Z,502.7692
2023-04-08T00:34:07.333Z,502.3077
2023-04-08T00:35:08.786Z,500.3077
2023-04-08T00:36:10.190Z,499.0000
2023-04-08T00:37:11.701Z,496.6154
2023-04-08T00:38:13.028Z,489.7692
2023-04-08T00:39:14.561Z,486.0000
2023-04-08T00:40:15.931Z,489.7692
2023-04-08T00:41:17.416Z,494.0769
2023-04-08T00:42:18.771Z,497.3077
2023-04-08T00:43:20.223Z,501.7692
2023-04-08T00:44:21.668Z,504.3077
2023-04-08T00:45:23.045Z,506.7692
2023-04-08T00:46:25.352Z,507.1538
2023-04-08T00:47:25.901Z,503.9231
2023-04-08T00:48:27.284Z,505.0000
2023-04-08T00:49:28.750Z,504.0000
2023-04-08T00:50:30.201Z,503.9231
2023-04-08T00:51:31.676Z,502.0000
2023-04-08T00:52:33.031Z,502.9231
2023-04-08T00:53:34.476Z,502.2308
2023-04-08T00:54:35.851Z,500.3846
2023-04-08T00:55:37.366Z,496.3846
2023-04-08T00:56:38.749Z,496.3077
2023-04-08T00:57:40.324Z,492.7692
2023-04-08T00:58:41.666Z,488.9231
2023-04-08T00:59:43.813Z,485.1538
2023-04-08T01:00:44.606Z,489.5385
2023-04-08T01:01:46.035Z,485.6154
2023-04-08T01:02:47.477Z,490.5385
2023-04-08T01:03:48.919Z,493.3077
2023-04-08T01:04:50.290Z,495.8462
2023-04-08T01:05:51.764Z,495.9231
2023-04-08T01:06:53.102Z,495.8462
2023-04-08T01:07:54.579Z,495.5385
2023-04-08T01:08:55.885Z,494.2308
2023-04-08T01:09:57.545Z,496.0000
2023-04-08T01:10:58.901Z,499.6923
2023-04-08T01:12:00.328Z,498.7692
2023-04-08T01:13:01.736Z,499.1538
2023-04-08T01:14:03.182Z,500.3077
2023-04-08T01:15:04.634Z,503.1538
2023-04-08T01:16:05.998Z,502.6154
2023-04-08T01:17:07.467Z,501.9231
2023-04-08T01:18:08.739Z,498.6154
2023-04-08T01:19:10.189Z,494.3077
2023-04-08T01:20:11.866Z,488.0769
2023-04-08T01:21:13.013Z,486.6154
2023-04-08T01:22:14.473Z,487.6154
2023-04-08T01:23:15.919Z,488.2308
2023-04-08T01:24:17.325Z,492.4615
2023-04-08T01:25:18.816Z,491.1538
2023-04-08T01:26:20.233Z,492.8462
2023-04-08T01:27:21.647Z,491.5385
2023-04-08T01:28:23.074Z,492.1538
2023-04-08T01:29:24.525Z,494.3077
2023-04-08T01:30:26.938Z,495.8462
2023-04-08T01:31:27.897Z,498.3077
2023-04-08T01:32:28.901Z,498.6923
2023-04-08T01:33:30.250Z,498.5385
2023-04-08T01:34:31.643Z,497.8462
2023-04-08T01:35:33.373Z,498.0769
2023-04-08T01:36:34.518Z,498.4615
2023-04-08T01:37:35.904Z,498.6923
2023-04-08T01:38:37.363Z,499.8462
2023-04-08T01:39:38.776Z,496.2308
2023-04-08T01:40:40.278Z,493.3846
2023-04-08T01:41:41.699Z,485.7692
2023-04-08T01:42:43.041Z,481.9231
2023-04-08T01:43:44.543Z,485.6923
2023-04-08T01:44:46.000Z,489.0769
2023-04-08T01:45:47.386Z,493.8462
2023-04-08T01:46:48.871Z,494.8462
2023-04-08T01:47:50.303Z,496.3846
2023-04-08T01:48:51.974Z,499.8462
2023-04-08T01:49:53.089Z,503.2308
2023-04-08T01:50:54.592Z,501.7692
2023-04-08T01:51:55.959Z,501.3846
2023-04-08T01:52:57.370Z,501.5385
2023-04-08T01:53:58.870Z,502.3846
2023-04-08T01:55:00.319Z,499.7692
2023-04-08T01:56:01.677Z,501.6154
2023-04-08T01:57:03.081Z,500.3077
2023-04-08T01:58:04.495Z,502.0000
2023-04-08T01:59:05.930Z,503.0769
2023-04-08T02:00:07.371Z,502.8462
2023-04-08T02:01:08.773Z,501.3077
2023-04-08T02:02:10.253Z,498.4615
2023-04-08T02:03:11.837Z,489.1538
2023-04-08T02:04:13.208Z,486.0000
2023-04-08T02:05:14.549Z,488.6923
2023-04-08T02:06:15.964Z,492.3077
2023-04-08T02:07:17.377Z,495.4615
2023-04-08T02:08:18.766Z,498.0000
2023-04-08T02:09:20.211Z,498.5385
2023-04-08T02:10:21.640Z,498.8462
2023-04-08T02:11:23.138Z,497.3077
2023-04-08T02:12:24.903Z,497.4615
2023-04-08T02:13:25.900Z,497.6154
2023-04-08T02:14:27.326Z,496.9231
2023-04-08T02:15:28.836Z,497.0000
2023-04-08T02:16:30.316Z,498.5385
2023-04-08T02:17:32.359Z,498.8462
2023-04-08T02:18:33.103Z,500.6923
2023-04-08T02:19:34.510Z,501.0000
2023-04-08T02:20:35.974Z,503.0000
2023-04-08T02:21:37.461Z,500.0000
2023-04-08T02:22:38.822Z,496.2308
2023-04-08T02:23:40.261Z,493.0769
2023-04-08T02:24:41.664Z,488.3846
2023-04-08T02:25:43.091Z,486.6923
2023-04-08T02:26:44.583Z,489.7692
2023-04-08T02:27:45.983Z,491.3846
2023-04-08T02:28:47.607Z,493.6154
2023-04-08T02:29:48.880Z,495.0000
2023-04-08T02:30:50.267Z,495.1538
2023-04-08T02:31:51.728Z,495.2308
2023-04-08T02:32:53.222Z,497.0769
2023-04-08T02:33:54.542Z,497.9231
2023-04-08T02:34:55.977Z,499.8462
2023-04-08T02:35:57.433Z,499.1538
2023-04-08T02:36:58.894Z,499.4615
2023-04-08T02:38:00.255Z,497.4615
2023-04-08T02:39:01.764Z,496.9231
2023-04-08T02:40:03.102Z,497.6923
2023-04-08T02:41:04.543Z,499.3846
2023-04-08T02:42:06.017Z,501.5385
2023-04-08T02:43:07.413Z,502.0769
2023-04-08T02:44:08.843Z,500.0769
2023-04-08T02:45:10.257Z,496.0000
2023-04-08T02:46:11.752Z,494.6154
2023-04-08T02:47:13.158Z,495.2308
2023-04-08T02:48:14.538Z,490.3077
2023-04-08T02:49:15.961Z,492.6154
2023-04-08T02:50:17.397Z,494.0000
2023-04-08T02:51:18.848Z,496.3846
2023-04-08T02:52:20.264Z,496.4615
2023-04-08T02:53:21.883Z,497.0000
2023-04-08T02:54:23.099Z,497.4615
2023-04-08T02:55:24.516Z,498.0769
2023-04-08T02:56:26.029Z,497.4615
2023-04-08T02:57:27.498Z,497.3077
2023-04-08T02:58:28.808Z,499.8462
2023-04-08T02:59:30.214Z,502.3077
2023-04-08T03:00:31.735Z,502.0769
2023-04-08T03:01:33.224Z,502.3077
2023-04-08T03:02:34.983Z,503.0000
2023-04-08T03:03:36.054Z,501.3846
2023-04-08T03:04:37.480Z,501.4615
2023-04-08T03:05:38.804Z,498.0769
2023-04-08T03:06:40.235Z,496.0000
2023-04-08T03:07:41.674Z,492.4615
2023-04-08T03:08:43.111Z,488.4615
2023-04-08T03:09:44.540Z,490.1538
2023-04-08T03:10:46.003Z,490.8462
2023-04-08T03:11:47.413Z,492.1538
2023-04-08T03:12:48.887Z,496.0000
2023-04-08T03:13:50.311Z,499.4615
2023-04-08T03:14:52.364Z,502.5385
2023-04-08T03:15:53.167Z,502.3077
2023-04-08T03:16:54.619Z,501.1538
2023-04-08T03:17:56.095Z,502.2308
2023-04-08T03:18:57.462Z,503.7692
2023-04-08T03:19:58.858Z,503.7692
2023-04-08T03:21:00.293Z,502.7692
2023-04-08T03:22:01.700Z,499.5385
2023-04-08T03:23:03.142Z,499.9231
2023-04-08T03:24:04.543Z,503.0769
2023-04-08T03:25:05.988Z,504.3846
2023-04-08T03:26:07.412Z,503.5385
2023-04-08T03:27:08.818Z,502.0000
2023-04-08T03:28:10.253Z,497.3077
2023-04-08T03:29:11.649Z,486.3077
2023-04-08T03:30:13.064Z,487.3077
2023-04-08T03:31:14.530Z,488.5385
2023-04-08T03:32:15.918Z,489.2308
2023-04-08T03:33:17.405Z,488.7692
2023-04-08T03:34:18.747Z,491.6923
2023-04-08T03:35:20.232Z,495.1538
2023-04-08T03:36:21.724Z,498.9231
2023-04-08T03:37:23.046Z,499.7692
2023-04-08T03:38:24.516Z,499.2308
2023-04-08T03:39:25.917Z,498.6923
2023-04-08T03:40:27.361Z,502.0000
2023-04-08T03:41:28.762Z,502.3846
2023-04-08T03:42:30.212Z,502.7692
2023-04-08T03:43:32.013Z,501.2308
2023-04-08T03:44:33.247Z,501.6154
2023-04-08T03:45:34.600Z,500.5385
2023-04-08T03:46:36.036Z,501.3846
2023-04-08T03:47:37.587Z,499.9231
2023-04-08T03:48:38.914Z,498.1538
2023-04-08T03:49:40.200Z,494.0769
2023-04-08T03:50:41.723Z,484.7692
2023-04-08T03:51:43.051Z,485.5385
2023-04-08T03:52:44.655Z,484.5385
2023-04-08T03:53:47.038Z,487.1538
2023-04-08T03:54:47.433Z,488.3846
2023-04-08T03:55:48.839Z,489.9231
2023-04-08T03:56:50.255Z,491.9231
2023-04-08T03:57:51.783Z,495.4615
2023-04-08T03:58:53.163Z,497.2308
2023-04-08T03:59:54.563Z,497.7692
2023-04-08T04:00:56.094Z,496.3846
2023-04-08T04:01:57.471Z,496.1538
2023-04-08T04:02:58.896Z,498.1538
2023-04-08T04:04:00.501Z,500.3077
2023-04-08T04:05:01.806Z,498.8462
2023-04-08T04:06:03.113Z,498.5385
2023-04-08T04:07:04.454Z,499.3077
2023-04-08T04:08:05.985Z,501.8462
2023-04-08T04:09:07.396Z,499.9231
2023-04-08T04:10:08.795Z,491.9231
2023-04-08T04:11:10.208Z,489.6923
2023-04-08T04:12:11.602Z,483.0769
2023-04-08T04:13:13.063Z,480.3846
2023-04-08T04:14:14.448Z,481.5385
2023-04-08T04:15:15.981Z,482.6923
2023-04-08T04:16:17.421Z,484.8462
2023-04-08T04:17:18.748Z,487.0000
2023-04-08T04:18:20.194Z,487.5385
2023-04-08T04:19:21.611Z,490.3077
2023-04-08T04:20:23.090Z,492.1538
2023-04-08T04:21:24.429Z,493.4615
2023-04-08T04:22:25.938Z,492.2308
2023-04-08T04:23:27.299Z,496.4615
2023-04-08T04:24:28.788Z,496.1538
2023-04-08T04:25:30.213Z,494.0000
2023-04-08T04:26:31.497Z,493.0000
2023-04-08T04:27:32.997Z,492.6923
2023-04-08T04:28:34.970Z,493.0769
2023-04-08T04:29:35.908Z,492.6154
2023-04-08T04:30:37.987Z,490.9231
2023-04-08T04:31:38.885Z,490.0000
2023-04-08T04:32:40.242Z,486.5385
2023-04-08T04:33:41.665Z,485.4615
2023-04-08T04:34:43.911Z,484.6923
2023-04-08T04:35:44.467Z,483.9231
2023-04-08T04:36:45.892Z,486.9231
2023-04-08T04:37:47.328Z,489.1538
2023-04-08T04:38:50.386Z,492.0769
2023-04-08T04:39:50.162Z,493.0000
2023-04-08T04:40:51.955Z,493.0000
2023-04-08T04:41:53.072Z,491.4615
2023-04-08T04:42:54.469Z,491.0769
2023-04-08T04:43:55.828Z,492.3846
2023-04-08T04:44:57.360Z,494.3077
2023-04-08T04:45:58.809Z,496.3077
2023-04-08T04:47:00.130Z,496.0769
2023-04-08T04:48:01.655Z,494.6154
2023-04-08T04:49:03.013Z,491.3077
2023-04-08T04:50:04.448Z,492.0000
2023-04-08T04:51:05.907Z,494.1538
2023-04-08T04:52:07.277Z,492.3846
2023-04-08T04:53:08.713Z,486.9231
2023-04-08T04:54:10.139Z,482.6923
2023-04-08T04:55:11.594Z,480.6923
2023-04-08T04:56:13.047Z,483.2308
2023-04-08T04:57:14.417Z,486.1538
2023-04-08T04:58:15.820Z,486.3077
2023-04-08T04:59:17.342Z,487.9231
2023-04-08T05:00:19.441Z,488.0769
2023-04-08T05:01:20.382Z,490.8462
2023-04-08T05:02:21.644Z,492.8462
2023-04-08T05:03:23.082Z,490.5385
2023-04-08T05:04:24.395Z,489.3846
2023-04-08T05:05:25.845Z,488.8462
2023-04-08T05:06:27.303Z,490.0000
2023-04-08T05:07:28.695Z,492.9231
2023-04-08T05:08:30.173Z,495.4615
2023-04-08T05:09:31.645Z,495.6923
2023-04-08T05:10:33.019Z,494.1538
2023-04-08T05:11:34.454Z,494.4615
2023-04-08T05:12:35.910Z,494.1538
2023-04-08T05:13:37.244Z,491.7692
2023-04-08T05:14:38.801Z,487.0000
2023-04-08T05:15:40.316Z,479.3846
2023-04-08T05:16:41.681Z,480.8462
2023-04-08T05:17:43.128Z,487.0000
2023-04-08T05:18:44.448Z,483.3077
2023-04-08T05:19:45.860Z,484.9231
2023-04-08T05:20:47.241Z,487.7692
2023-04-08T05:21:48.786Z,492.6154
2023-04-08T05:22:50.102Z,492.2308
2023-04-08T05:23:51.840Z,493.3077
2023-04-08T05:24:52.985Z,492.3077
2023-04-08T05:25:54.545Z,492.7692
2023-04-08T05:26:56.007Z,494.0769
2023-04-08T05:27:57.425Z,498.3077
2023-04-08T05:28:58.846Z,498.0000
2023-04-08T05:30:00.246Z,495.7692
2023-04-08T05:31:01.650Z,494.6154
2023-04-08T05:32:03.106Z,494.5385
2023-04-08T05:33:04.554Z,495.0769
2023-04-08T05:34:05.988Z,496.1538
2023-04-08T05:35:07.369Z,495.0000
2023-04-08T05:36:08.700Z,490.5385
2023-04-08T05:37:10.301Z,494.3077
2023-04-08T05:38:11.669Z,485.2308
2023-04-08T05:39:13.052Z,483.3077
2023-04-08T05:40:14.488Z,486.2308
2023-04-08T05:41:15.895Z,488.4615
2023-04-08T05:42:17.415Z,488.3077
2023-04-08T05:43:18.762Z,489.3846
2023-04-08T05:44:20.218Z,491.0000
2023-04-08T05:45:21.691Z,494.2308
2023-04-08T05:46:23.053Z,493.2308
2023-04-08T05:47:24.631Z,495.1538
2023-04-08T05:48:25.901Z,495.6154
2023-04-08T05:49:27.386Z,495.2308
2023-04-08T05:50:29.225Z,495.2308
2023-04-08T05:51:30.258Z,494.8462
2023-04-08T05:52:31.604Z,493.8462
2023-04-08T05:53:33.038Z,492.3846
2023-04-08T05:54:34.512Z,493.8462
2023-04-08T05:55:36.547Z,492.6154
2023-04-08T05:56:37.330Z,489.0000
2023-04-08T05:57:39.676Z,486.4615
2023-04-08T05:58:40.125Z,484.5385
2023-04-08T05:59:41.550Z,482.0769
2023-04-08T06:00:42.942Z,481.6154
2023-04-08T06:01:44.453Z,482.5385
2023-04-08T06:02:46.408Z,483.7692
2023-04-08T06:03:48.058Z,485.0769
2023-04-08T06:04:48.782Z,486.2308
2023-04-08T06:05:50.130Z,486.5385
2023-04-08T06:06:51.538Z,489.2308
2023-04-08T06:07:53.009Z,490.1538
2023-04-08T06:08:54.370Z,487.3077
2023-04-08T06:09:55.972Z,487.4615
2023-04-08T06:10:57.237Z,492.6923
2023-04-08T06:11:58.712Z,490.6154
2023-04-08T06:13:00.510Z,488.7692
2023-04-08T06:14:01.490Z,489.3846
2023-04-08T06:15:02.939Z,487.5385
2023-04-08T06:16:04.361Z,487.4615
2023-04-08T06:17:05.879Z,484.6923
2023-04-08T06:18:07.486Z,484.6154
2023-04-08T06:19:08.614Z,483.0000
2023-04-08T06:20:10.149Z,477.9231
2023-04-08T06:21:11.546Z,471.4615
2023-04-08T06:22:12.922Z,474.7692
2023-04-08T06:23:14.493Z,473.3846
2023-04-08T06:24:15.803Z,476.3077
2023-04-08T06:25:17.189Z,475.5385
2023-04-08T06:26:18.630Z,478.6154
2023-04-08T06:27:20.122Z,479.1538
2023-04-08T06:28:22.068Z,481.8462
2023-04-08T06:29:23.022Z,483.8462
2023-04-08T06:30:24.336Z,481.6923
2023-04-08T06:31:25.796Z,476.4615
2023-04-08T06:32:27.318Z,477.1538
2023-04-08T06:33:28.813Z,477.9231
2023-04-08T06:34:30.080Z,479.6923
2023-04-08T06:35:32.613Z,480.4615
2023-04-08T06:36:32.978Z,477.4615
2023-04-08T06:37:34.316Z,476.7692
2023-04-08T06:38:35.722Z,476.3846
2023-04-08T06:39:37.137Z,476.1538
2023-04-08T06:40:38.554Z,474.0000
2023-04-08T06:41:39.985Z,470.3077
2023-04-08T06:42:41.503Z,466.6923
2023-04-08T06:43:43.091Z,465.0769
2023-04-08T06:44:44.448Z,466.8462
2023-04-08T06:45:45.852Z,471.0769
2023-04-08T06:46:47.257Z,474.6923
2023-04-08T06:47:48.626Z,472.4615
2023-04-08T06:48:50.238Z,474.0000
2023-04-08T06:49:51.547Z,472.7692
2023-04-08T06:50:53.068Z,470.9231
2023-04-08T06:51:54.391Z,470.9231
2023-04-08T06:52:55.669Z,471.9231
2023-04-08T06:53:57.225Z,474.0000
2023-04-08T06:54:58.629Z,473.4615
2023-04-08T06:56:00.100Z,474.4615
2023-04-08T06:57:01.487Z,475.6154
2023-04-08T06:58:02.902Z,475.5385
2023-04-08T06:59:05.625Z,475.5385
2023-04-08T07:00:05.783Z,475.0769
2023-04-08T07:01:07.261Z,472.7692
2023-04-08T07:02:08.560Z,464.4615
2023-04-08T07:03:10.087Z,461.4615
2023-04-08T07:04:12.463Z,463.7692
2023-04-08T07:05:12.858Z,461.0769
2023-04-08T07:06:14.434Z,460.4615
2023-04-08T07:07:15.759Z,462.4615
2023-04-08T07:08:17.165Z,464.9231
2023-04-08T07:09:18.587Z,467.8462
2023-04-08T07:10:20.119Z,469.8462
2023-04-08T07:11:21.932Z,467.3077
2023-04-08T07:12:22.844Z,467.8462
2023-04-08T07:13:24.280Z,467.3077
2023-04-08T07:14:25.750Z,467.9231
2023-04-08T07:15:27.104Z,469.0769
2023-04-08T07:16:28.542Z,467.8462
2023-04-08T07:17:29.969Z,465.9231
2023-04-08T07:18:31.372Z,468.1538
2023-04-08T07:19:32.859Z,469.2308
2023-04-08T07:20:34.216Z,469.7692
2023-04-08T07:21:35.705Z,468.3846
2023-04-08T07:22:37.093Z,466.4615
2023-04-08T07:23:38.453Z,462.3846
2023-04-08T07:24:40.010Z,460.7692
2023-04-08T07:25:41.615Z,458.1538
2023-04-08T07:26:42.810Z,459.3077
2023-04-08T07:27:44.286Z,460.1538
2023-04-08T07:28:45.672Z,462.1538
2023-04-08T07:29:47.937Z,466.4615
2023-04-08T07:30:48.576Z,469.0769
2023-04-08T07:31:50.034Z,469.0000
2023-04-08T07:32:51.499Z,469.3846
2023-04-08T07:33:52.910Z,469.2308
2023-04-08T07:34:54.280Z,467.3077
2023-04-08T07:35:55.674Z,468.2308
2023-04-08T07:36:57.133Z,467.8462
2023-04-08T07:37:58.595Z,469.1538
2023-04-08T07:39:00.101Z,470.0769
2023-04-08T07:40:01.456Z,468.7692
2023-04-08T07:41:02.811Z,468.6923
2023-04-08T07:42:04.249Z,467.6923
2023-04-08T07:43:05.743Z,466.9231
2023-04-08T07:44:07.132Z,465.3077
2023-04-08T07:45:08.458Z,462.6154
2023-04-08T07:46:10.008Z,455.3077
2023-04-08T07:47:11.406Z,452.5385
2023-04-08T07:48:12.785Z,453.6154
2023-04-08T07:49:14.195Z,453.7692
2023-04-08T07:50:15.690Z,453.4615
2023-04-08T07:51:17.049Z,457.4615
2023-04-08T07:52:18.381Z,460.4615
2023-04-08T07:53:20.101Z,460.3077
2023-04-08T07:54:21.272Z,463.6923
2023-04-08T07:55:22.751Z,463.7692
2023-04-08T07:56:24.143Z,463.6923
2023-04-08T07:57:25.582Z,462.3846
2023-04-08T07:58:26.980Z,457.3846
2023-04-08T07:59:28.325Z,458.4615
2023-04-08T08:00:29.869Z,458.0769
2023-04-08T08:01:31.511Z,459.9231
2023-04-08T08:02:32.827Z,460.6923
2023-04-08T08:03:34.457Z,462.9231
2023-04-08T08:04:35.752Z,461.8462
2023-04-08T08:05:37.120Z,459.0769
2023-04-08T08:06:38.379Z,457.6923
2023-04-08T08:07:39.860Z,449.7692
2023-04-08T08:08:41.192Z,448.3077
2023-04-08T08:09:42.625Z,452.0000
2023-04-08T08:10:44.091Z,450.1538
2023-04-08T08:11:45.496Z,450.4615
2023-04-08T08:12:46.950Z,452.3077
2023-04-08T08:13:48.490Z,455.0000
2023-04-08T08:14:49.784Z,459.4615
2023-04-08T08:15:51.256Z,461.7692
2023-04-08T08:16:52.726Z,460.0769
2023-04-08T08:17:54.144Z,459.7692
2023-04-08T08:18:55.518Z,462.1538
2023-04-08T08:19:56.981Z,461.0000
2023-04-08T08:20:58.328Z,460.6154
2023-04-08T08:21:59.864Z,459.1538
2023-04-08T08:23:01.190Z,458.5385
2023-04-08T08:24:02.701Z,458.3846
2023-04-08T08:25:04.120Z,459.8462
2023-04-08T08:26:05.505Z,460.3077
2023-04-08T08:27:06.991Z,458.3846
2023-04-08T08:28:08.290Z,454.9231
2023-04-08T08:29:09.752Z,449.6923
2023-04-08T08:30:11.140Z,445.4615
2023-04-08T08:31:12.716Z,445.9231
2023-04-08T08:32:13.960Z,447.3846
2023-04-08T08:33:15.470Z,447.6154
2023-04-08T08:34:16.889Z,452.2308
2023-04-08T08:35:18.244Z,458.4615
2023-04-08T08:36:19.820Z,459.6923
2023-04-08T08:37:21.188Z,457.4615
2023-04-08T08:38:22.623Z,459.9231
2023-04-08T08:39:24.018Z,459.9231
2023-04-08T08:40:25.486Z,458.3846
2023-04-08T08:41:26.922Z,458.8462
2023-04-08T08:42:28.260Z,462.6923
2023-04-08T08:43:29.719Z,462.5385
2023-04-08T08:44:31.131Z,459.9231
2023-04-08T08:45:32.602Z,460.7692
2023-04-08T08:46:34.176Z,460.3846
2023-04-08T08:47:35.466Z,459.7692
2023-04-08T08:48:36.831Z,458.3846
2023-04-08T08:49:38.323Z,455.3846
2023-04-08T08:50:39.813Z,450.6923
2023-04-08T08:51:41.189Z,441.7692
2023-04-08T08:52:42.649Z,441.6923
2023-04-08T08:53:43.931Z,446.0000
2023-04-08T08:54:45.327Z,448.2308
2023-04-08T08:56:13.507Z,449.5385
2023-04-08T08:56:48.326Z,452.0000
2023-04-08T08:57:49.718Z,456.5385
2023-04-08T08:58:51.221Z,457.2308
2023-04-08T08:59:52.678Z,455.7692
2023-04-08T09:00:54.112Z,458.5385
2023-04-08T09:01:55.630Z,457.6923
2023-04-08T09:02:57.200Z,459.0000
2023-04-08T09:03:58.450Z,458.9231
2023-04-08T09:04:59.963Z,457.9231
2023-04-08T09:06:01.290Z,459.1538
2023-04-08T09:07:02.696Z,460.5385
2023-04-08T09:08:04.124Z,462.7692
2023-04-08T09:09:05.526Z,463.5385
2023-04-08T09:10:06.937Z,460.0000
2023-04-08T09:11:08.416Z,454.3077
2023-04-08T09:12:09.812Z,450.5385
2023-04-08T09:13:11.247Z,448.5385
2023-04-08T09:14:12.614Z,445.6923
2023-04-08T09:15:14.081Z,445.6154
2023-04-08T09:16:15.612Z,447.6923
2023-04-08T09:17:16.962Z,450.1538
2023-04-08T09:18:18.416Z,451.7692
2023-04-08T09:19:19.845Z,453.0769
2023-04-08T09:20:21.278Z,452.8462
2023-04-08T09:21:22.706Z,457.4615
2023-04-08T09:22:24.074Z,456.3846
2023-04-08T09:23:25.507Z,455.9231
2023-04-08T09:24:26.876Z,456.6154
2023-04-08T09:25:28.242Z,457.9231
2023-04-08T09:26:29.818Z,458.2308
2023-04-08T09:27:31.227Z,460.1538
2023-04-08T09:28:32.585Z,460.2308
2023-04-08T09:29:35.237Z,459.6923
2023-04-08T09:30:35.445Z,461.0769
2023-04-08T09:31:37.742Z,457.6923
2023-04-08T09:32:38.362Z,454.0769
2023-04-08T09:33:39.743Z,450.4615
2023-04-08T09:34:41.136Z,446.1538
2023-04-08T09:35:42.635Z,435.0000
2023-04-08T09:36:43.929Z,438.3077
2023-04-08T09:37:45.535Z,448.3846
2023-04-08T09:38:46.983Z,450.3846
2023-04-08T09:39:48.313Z,451.2308
2023-04-08T09:40:49.793Z,452.6923
2023-04-08T09:41:51.250Z,455.0769
2023-04-08T09:42:52.607Z,456.4615
2023-04-08T09:43:53.982Z,458.5385
2023-04-08T09:44:55.402Z,459.1538
2023-04-08T09:45:56.916Z,457.8462
2023-04-08T09:46:58.398Z,456.0000
2023-04-08T09:47:59.829Z,455.0000
2023-04-08T09:49:01.653Z,456.0000
2023-04-08T09:50:02.624Z,455.0769
2023-04-08T09:51:03.994Z,453.4615
2023-04-08T09:52:05.423Z,452.3846
2023-04-08T09:53:06.886Z,451.2308
2023-04-08T09:54:08.257Z,454.3846
2023-04-08T09:55:09.668Z,450.9231
2023-04-08T09:56:11.103Z,442.4615
2023-04-08T09:57:12.564Z,444.2308
2023-04-08T09:58:13.851Z,443.3846
2023-04-08T09:59:15.331Z,442.7692
2023-04-08T10:00:16.846Z,442.0000
2023-04-08T10:01:18.343Z,445.2308
2023-04-08T10:02:19.851Z,447.3077
2023-04-08T10:03:21.388Z,449.2308
2023-04-08T10:04:22.831Z,449.3077
2023-04-08T10:05:24.093Z,453.0000
2023-04-08T10:06:25.435Z,451.6923
2023-04-08T10:07:27.621Z,452.3846
2023-04-08T10:08:28.275Z,454.0769
2023-04-08T10:09:29.722Z,455.5385
2023-04-08T10:10:31.049Z,455.3846
2023-04-08T10:11:32.544Z,452.3846
2023-04-08T10:12:33.996Z,455.6923
2023-04-08T10:13:35.525Z,456.0769
2023-04-08T10:14:36.806Z,456.0769
2023-04-08T10:15:38.276Z,449.3846
2023-04-08T10:16:39.642Z,447.3846
2023-04-08T10:17:41.063Z,438.9231
2023-04-08T10:18:42.542Z,439.0000
2023-04-08T10:19:43.932Z,440.6154
2023-04-08T10:20:45.327Z,437.0000
2023-04-08T10:21:47.702Z,441.7692
2023-04-08T10:22:48.207Z,447.5385
2023-04-08T10:23:49.959Z,450.0000
2023-04-08T10:24:51.161Z,451.1538
2023-04-08T10:25:52.483Z,450.9231
2023-04-08T10:26:53.982Z,451.1538
2023-04-08T10:27:55.323Z,452.6923
2023-04-08T10:28:56.829Z,453.3846
2023-04-08T10:29:58.211Z,452.0769
2023-04-08T10:30:59.499Z,451.0769
2023-04-08T10:32:01.049Z,449.4615
2023-04-08T10:33:02.444Z,450.6923
2023-04-08T10:34:03.854Z,448.7692
2023-04-08T10:35:05.208Z,448.5385
2023-04-08T10:36:06.693Z,448.6154
2023-04-08T10:37:08.028Z,447.1538
2023-04-08T10:38:09.448Z,440.0000
2023-04-08T10:39:11.092Z,436.0000
2023-04-08T10:40:12.340Z,435.4615
2023-04-08T10:41:13.780Z,435.4615
2023-04-08T10:42:15.214Z,432.2308
2023-04-08T10:43:16.573Z,433.1538
2023-04-08T10:44:18.012Z,437.8462
2023-04-08T10:45:19.514Z,441.7692
2023-04-08T10:46:21.035Z,442.8462
2023-04-08T10:47:22.405Z,443.6154
2023-04-08T10:48:23.699Z,445.1538
2023-04-08T10:49:25.146Z,447.3846
2023-04-08T10:50:26.731Z,448.3846
2023-04-08T10:51:28.397Z,447.3077
2023-04-08T10:52:29.445Z,446.3077
2023-04-08T10:53:30.911Z,446.6923
2023-04-08T10:54:32.323Z,445.3077
2023-04-08T10:55:34.680Z,445.1538
2023-04-08T10:56:35.191Z,447.0769
2023-04-08T10:57:36.630Z,449.3846
2023-04-08T10:58:38.049Z,450.6154
2023-04-08T10:59:39.455Z,446.3846
2023-04-08T11:00:40.979Z,436.4615
2023-04-08T11:01:42.350Z,433.1538
2023-04-08T11:02:43.824Z,433.7692
2023-04-08T11:03:45.205Z,439.2308
2023-04-08T11:04:46.594Z,442.3077
2023-04-08T11:05:48.088Z,443.8462
2023-04-08T11:06:49.431Z,444.8462
2023-04-08T11:07:50.900Z,443.8462
2023-04-08T11:08:52.273Z,444.0000
2023-04-08T11:09:53.733Z,446.0000
2023-04-08T11:10:55.186Z,446.6923
2023-04-08T11:11:56.547Z,446.4615
2023-04-08T11:12:58.014Z,445.3077
2023-04-08T11:13:59.400Z,446.4615
2023-04-08T11:15:00.830Z,445.6923
2023-04-08T11:16:02.340Z,445.2308
2023-04-08T11:17:03.696Z,446.6923
2023-04-08T11:18:05.102Z,450.0769
2023-04-08T11:19:06.486Z,457.6154
2023-04-08T11:20:07.919Z,451.2308
2023-04-08T11:21:09.359Z,444.6154
2023-04-08T11:22:11.240Z,438.0000
2023-04-08T11:23:12.346Z,434.0769
2023-04-08T11:24:13.752Z,428.6154
2023-04-08T11:25:15.196Z,431.6923
2023-04-08T11:26:16.590Z,435.5385
2023-04-08T11:27:18.160Z,438.1538
2023-04-08T11:28:19.504Z,441.4615
2023-04-08T11:29:20.892Z,444.6923
2023-04-08T11:30:22.357Z,444.6154
2023-04-08T11:31:24.887Z,444.8462
2023-04-08T11:32:25.207Z,445.3077
2023-04-08T11:33:26.668Z,450.6154
2023-04-08T11:34:28.022Z,450.6154
2023-04-08T11:35:29.430Z,446.7692
2023-04-08T11:36:30.899Z,447.0769
2023-04-08T11:37:32.405Z,445.8462
2023-04-08T11:38:33.831Z,444.3077
2023-04-08T11:39:35.067Z,445.8462
2023-04-08T11:40:36.580Z,445.7692
2023-04-08T11:41:38.040Z,445.3846
2023-04-08T11:42:39.456Z,442.3077
2023-04-08T11:43:40.836Z,432.6923
2023-04-08T11:44:42.291Z,427.1538
2023-04-08T11:45:43.657Z,424.6923
2023-04-08T11:46:45.168Z,430.1538
2023-04-08T11:47:46.611Z,435.0769
2023-04-08T11:48:48.623Z,439.4615
2023-04-08T11:49:49.449Z,439.4615
2023-04-08T11:50:50.849Z,442.0769
2023-04-08T11:51:52.286Z,442.5385
2023-04-08T11:52:53.752Z,443.9231
2023-04-08T11:53:56.332Z,442.9231
2023-04-08T11:54:56.516Z,441.4615
2023-04-08T11:55:57.935Z,443.6923
2023-04-08T11:56:59.404Z,446.0769
2023-04-08T11:58:00.820Z,445.6154
2023-04-08T11:59:02.285Z,445.3077
2023-04-08T12:00:04.641Z,443.9231
2023-04-08T12:01:05.100Z,446.1538